sensor_id;sensor_type;location;lat;lon;timestamp;P1;durP1;ratioP1;P2;durP2;ratioP2
974;SDS011;6115;49.296;10.602;2023-06-14T00:01:07;2.93;;;2.07;;
974;SDS011;6115;49.296;10.602;2023-06-14T00:06:09;3.73;;;2.60;;
974;SDS011;6115;49.296;10.602;2023-06-14T00:11:10;2.70;;;2.40;;
974;SDS011;6115;49.296;10.602;2023-06-14T00:16:10;4.77;;;2.80;;
974;SDS011;6115;49.296;10.602;2023-06-14T00:21:11;2.67;;;2.47;;
974;SDS011;6115;49.296;10.602;2023-06-14T00:26:12;3.53;;;2.37;;
974;SDS011;6115;49.296;10.602;2023-06-14T00:31:12;4.90;;;3.20;;
974;SDS011;6115;49.296;10.602;2023-06-14T00:36:13;3.80;;;2.97;;
974;SDS011;6115;49.296;10.602;2023-06-14T00:41:16;3.20;;;2.50;;
974;SDS011;6115;49.296;10.602;2023-06-14T00:46:17;4.73;;;3.33;;
974;SDS011;6115;49.296;10.602;2023-06-14T00:51:19;5.07;;;3.20;;
974;SDS011;6115;49.296;10.602;2023-06-14T00:56:20;5.57;;;3.00;;
974;SDS011;6115;49.296;10.602;2023-06-14T01:01:20;3.50;;;3.20;;
974;SDS011;6115;49.296;10.602;2023-06-14T01:06:23;4.40;;;3.03;;
974;SDS011;6115;49.296;10.602;2023-06-14T01:11:33;3.13;;;2.37;;
974;SDS011;6115;49.296;10.602;2023-06-14T01:16:40;3.30;;;2.50;;
974;SDS011;6115;49.296;10.602;2023-06-14T01:21:41;3.40;;;3.10;;
974;SDS011;6115;49.296;10.602;2023-06-14T01:26:42;3.53;;;2.43;;
974;SDS011;6115;49.296;10.602;2023-06-14T01:31:45;3.80;;;2.87;;
974;SDS011;6115;49.296;10.602;2023-06-14T01:36:47;3.67;;;2.67;;
974;SDS011;6115;49.296;10.602;2023-06-14T01:41:49;3.00;;;2.70;;
974;SDS011;6115;49.296;10.602;2023-06-14T01:46:52;3.00;;;2.70;;
974;SDS011;6115;49.296;10.602;2023-06-14T01:51:52;2.93;;;2.47;;
974;SDS011;6115;49.296;10.602;2023-06-14T01:56:56;3.57;;;3.23;;
974;SDS011;6115;49.296;10.602;2023-06-14T02:01:57;5.70;;;3.53;;
974;SDS011;6115;49.296;10.602;2023-06-14T02:06:57;3.60;;;3.10;;
974;SDS011;6115;49.296;10.602;2023-06-14T02:11:58;4.50;;;3.60;;
974;SDS011;6115;49.296;10.602;2023-06-14T02:16:59;6.00;;;3.67;;
974;SDS011;6115;49.296;10.602;2023-06-14T02:22:00;3.43;;;2.87;;
974;SDS011;6115;49.296;10.602;2023-06-14T02:27:01;5.03;;;3.37;;
974;SDS011;6115;49.296;10.602;2023-06-14T02:32:04;3.60;;;2.80;;
974;SDS011;6115;49.296;10.602;2023-06-14T02:37:07;4.27;;;3.50;;
974;SDS011;6115;49.296;10.602;2023-06-14T02:42:08;5.20;;;3.90;;
974;SDS011;6115;49.296;10.602;2023-06-14T02:47:08;3.87;;;3.10;;
974;SDS011;6115;49.296;10.602;2023-06-14T02:52:09;3.60;;;3.20;;
974;SDS011;6115;49.296;10.602;2023-06-14T02:57:10;4.67;;;3.80;;
974;SDS011;6115;49.296;10.602;2023-06-14T03:02:11;4.50;;;3.60;;
974;SDS011;6115;49.296;10.602;2023-06-14T03:07:11;7.00;;;4.07;;
974;SDS011;6115;49.296;10.602;2023-06-14T03:12:12;5.33;;;3.77;;
974;SDS011;6115;49.296;10.602;2023-06-14T03:17:13;4.70;;;3.80;;
974;SDS011;6115;49.296;10.602;2023-06-14T03:22:13;4.30;;;3.30;;
974;SDS011;6115;49.296;10.602;2023-06-14T03:27:14;3.50;;;3.20;;
974;SDS011;6115;49.296;10.602;2023-06-14T03:32:14;3.87;;;3.27;;
974;SDS011;6115;49.296;10.602;2023-06-14T03:37:15;5.13;;;3.87;;
974;SDS011;6115;49.296;10.602;2023-06-14T03:42:16;3.10;;;2.73;;
974;SDS011;6115;49.296;10.602;2023-06-14T03:47:19;4.40;;;3.40;;
974;SDS011;6115;49.296;10.602;2023-06-14T03:52:20;7.17;;;3.93;;
974;SDS011;6115;49.296;10.602;2023-06-14T03:57:22;4.13;;;3.50;;
974;SDS011;6115;49.296;10.602;2023-06-14T04:02:23;3.53;;;3.13;;
974;SDS011;6115;49.296;10.602;2023-06-14T04:07:25;3.90;;;3.33;;
974;SDS011;6115;49.296;10.602;2023-06-14T04:12:28;6.23;;;3.73;;
974;SDS011;6115;49.296;10.602;2023-06-14T04:17:28;4.57;;;3.37;;
974;SDS011;6115;49.296;10.602;2023-06-14T04:22:29;3.47;;;2.53;;
974;SDS011;6115;49.296;10.602;2023-06-14T04:27:31;3.87;;;3.03;;
974;SDS011;6115;49.296;10.602;2023-06-14T04:32:34;4.00;;;2.57;;
974;SDS011;6115;49.296;10.602;2023-06-14T04:37:39;5.30;;;3.97;;
974;SDS011;6115;49.296;10.602;2023-06-14T04:42:41;2.93;;;2.50;;
974;SDS011;6115;49.296;10.602;2023-06-14T04:47:44;3.90;;;3.17;;
974;SDS011;6115;49.296;10.602;2023-06-14T04:52:46;2.80;;;2.50;;
974;SDS011;6115;49.296;10.602;2023-06-14T04:57:52;4.03;;;3.47;;
974;SDS011;6115;49.296;10.602;2023-06-14T05:02:53;4.20;;;3.60;;
974;SDS011;6115;49.296;10.602;2023-06-14T05:07:54;3.33;;;3.03;;
974;SDS011;6115;49.296;10.602;2023-06-14T05:12:54;3.07;;;2.77;;
974;SDS011;6115;49.296;10.602;2023-06-14T05:17:55;6.00;;;2.93;;
974;SDS011;6115;49.296;10.602;2023-06-14T05:22:56;4.90;;;3.37;;
974;SDS011;6115;49.296;10.602;2023-06-14T05:27:56;3.63;;;2.63;;
974;SDS011;6115;49.296;10.602;2023-06-14T05:32:57;3.70;;;3.20;;
974;SDS011;6115;49.296;10.602;2023-06-14T05:37:58;5.13;;;3.33;;
974;SDS011;6115;49.296;10.602;2023-06-14T05:42:58;8.13;;;3.00;;
974;SDS011;6115;49.296;10.602;2023-06-14T05:47:59;3.33;;;2.27;;
974;SDS011;6115;49.296;10.602;2023-06-14T05:52:59;4.60;;;3.20;;
974;SDS011;6115;49.296;10.602;2023-06-14T05:58:00;2.93;;;2.63;;
974;SDS011;6115;49.296;10.602;2023-06-14T06:03:00;3.93;;;3.27;;
974;SDS011;6115;49.296;10.602;2023-06-14T06:08:01;3.63;;;3.33;;
974;SDS011;6115;49.296;10.602;2023-06-14T06:13:02;3.10;;;2.80;;
974;SDS011;6115;49.296;10.602;2023-06-14T06:18:02;3.73;;;3.30;;
974;SDS011;6115;49.296;10.602;2023-06-14T06:23:03;4.20;;;2.77;;
974;SDS011;6115;49.296;10.602;2023-06-14T06:28:03;3.23;;;2.50;;
974;SDS011;6115;49.296;10.602;2023-06-14T06:33:04;2.33;;;2.13;;
974;SDS011;6115;49.296;10.602;2023-06-14T06:38:05;4.00;;;2.83;;
974;SDS011;6115;49.296;10.602;2023-06-14T06:43:06;3.50;;;2.67;;
974;SDS011;6115;49.296;10.602;2023-06-14T06:48:06;3.10;;;2.73;;
974;SDS011;6115;49.296;10.602;2023-06-14T06:53:07;3.70;;;2.73;;
974;SDS011;6115;49.296;10.602;2023-06-14T06:58:08;6.07;;;3.23;;
974;SDS011;6115;49.296;10.602;2023-06-14T07:03:08;4.03;;;3.03;;
974;SDS011;6115;49.296;10.602;2023-06-14T07:08:09;2.60;;;2.40;;
974;SDS011;6115;49.296;10.602;2023-06-14T07:13:09;2.77;;;2.43;;
974;SDS011;6115;49.296;10.602;2023-06-14T07:18:10;4.00;;;2.90;;
974;SDS011;6115;49.296;10.602;2023-06-14T07:23:11;3.10;;;2.60;;
974;SDS011;6115;49.296;10.602;2023-06-14T07:28:12;3.70;;;2.40;;
974;SDS011;6115;49.296;10.602;2023-06-14T07:33:12;10.30;;;3.47;;
974;SDS011;6115;49.296;10.602;2023-06-14T07:38:13;3.20;;;2.90;;
974;SDS011;6115;49.296;10.602;2023-06-14T07:43:14;3.13;;;2.30;;
974;SDS011;6115;49.296;10.602;2023-06-14T07:48:14;3.00;;;2.43;;
974;SDS011;6115;49.296;10.602;2023-06-14T07:53:15;3.67;;;2.67;;
974;SDS011;6115;49.296;10.602;2023-06-14T07:58:15;3.30;;;2.53;;
974;SDS011;6115;49.296;10.602;2023-06-14T08:03:16;4.57;;;2.20;;
974;SDS011;6115;49.296;10.602;2023-06-14T08:08:18;2.63;;;2.20;;
974;SDS011;6115;49.296;10.602;2023-06-14T08:13:18;3.90;;;2.30;;
974;SDS011;6115;49.296;10.602;2023-06-14T08:18:19;3.57;;;2.27;;
974;SDS011;6115;49.296;10.602;2023-06-14T08:23:20;3.03;;;2.40;;
974;SDS011;6115;49.296;10.602;2023-06-14T08:28:21;3.00;;;2.30;;
974;SDS011;6115;49.296;10.602;2023-06-14T08:33:21;2.90;;;2.60;;
974;SDS011;6115;49.296;10.602;2023-06-14T08:38:22;2.40;;;2.00;;
974;SDS011;6115;49.296;10.602;2023-06-14T08:43:22;4.40;;;2.20;;
974;SDS011;6115;49.296;10.602;2023-06-14T08:48:23;2.60;;;2.17;;
974;SDS011;6115;49.296;10.602;2023-06-14T08:53:27;2.37;;;2.17;;
974;SDS011;6115;49.296;10.602;2023-06-14T08:58:31;2.57;;;1.97;;
974;SDS011;6115;49.296;10.602;2023-06-14T09:03:33;2.03;;;1.83;;
974;SDS011;6115;49.296;10.602;2023-06-14T09:08:34;2.93;;;2.33;;
974;SDS011;6115;49.296;10.602;2023-06-14T09:13:35;2.50;;;1.97;;
974;SDS011;6115;49.296;10.602;2023-06-14T09:18:37;2.70;;;2.37;;
974;SDS011;6115;49.296;10.602;2023-06-14T09:23:42;4.33;;;3.00;;
974;SDS011;6115;49.296;10.602;2023-06-14T09:28:48;3.23;;;2.80;;
974;SDS011;6115;49.296;10.602;2023-06-14T09:33:50;2.50;;;2.00;;
974;SDS011;6115;49.296;10.602;2023-06-14T09:39:02;2.43;;;1.67;;
974;SDS011;6115;49.296;10.602;2023-06-14T09:44:07;3.10;;;1.70;;
974;SDS011;6115;49.296;10.602;2023-06-14T09:49:08;2.77;;;2.33;;
974;SDS011;6115;49.296;10.602;2023-06-14T09:54:09;1.60;;;1.50;;
974;SDS011;6115;49.296;10.602;2023-06-14T09:59:16;2.23;;;1.93;;
974;SDS011;6115;49.296;10.602;2023-06-14T10:04:21;1.87;;;1.70;;
974;SDS011;6115;49.296;10.602;2023-06-14T10:09:22;2.10;;;1.93;;
974;SDS011;6115;49.296;10.602;2023-06-14T10:14:23;1.97;;;1.60;;
974;SDS011;6115;49.296;10.602;2023-06-14T10:19:37;2.10;;;1.90;;
974;SDS011;6115;49.296;10.602;2023-06-14T10:24:52;3.60;;;2.10;;
974;SDS011;6115;49.296;10.602;2023-06-14T10:34:56;2.87;;;2.07;;
974;SDS011;6115;49.296;10.602;2023-06-14T10:39:57;3.27;;;2.60;;
974;SDS011;6115;49.296;10.602;2023-06-14T10:44:58;2.80;;;2.60;;
974;SDS011;6115;49.296;10.602;2023-06-14T10:50:03;2.40;;;2.20;;
974;SDS011;6115;49.296;10.602;2023-06-14T10:55:16;2.73;;;2.47;;
974;SDS011;6115;49.296;10.602;2023-06-14T11:00:19;2.70;;;2.07;;
974;SDS011;6115;49.296;10.602;2023-06-14T11:05:25;2.27;;;2.07;;
974;SDS011;6115;49.296;10.602;2023-06-14T11:10:37;3.40;;;2.37;;
974;SDS011;6115;49.296;10.602;2023-06-14T11:15:44;2.30;;;2.10;;
974;SDS011;6115;49.296;10.602;2023-06-14T11:20:46;2.20;;;2.00;;
974;SDS011;6115;49.296;10.602;2023-06-14T11:25:51;2.87;;;2.57;;
974;SDS011;6115;49.296;10.602;2023-06-14T11:31:01;2.93;;;2.37;;
974;SDS011;6115;49.296;10.602;2023-06-14T11:36:03;2.33;;;2.10;;
974;SDS011;6115;49.296;10.602;2023-06-14T11:41:08;2.30;;;2.10;;
974;SDS011;6115;49.296;10.602;2023-06-14T11:46:12;2.47;;;2.17;;
974;SDS011;6115;49.296;10.602;2023-06-14T11:51:18;5.00;;;2.20;;
974;SDS011;6115;49.296;10.602;2023-06-14T11:56:20;2.40;;;2.13;;
974;SDS011;6115;49.296;10.602;2023-06-14T12:01:20;2.70;;;2.40;;
974;SDS011;6115;49.296;10.602;2023-06-14T12:06:30;6.30;;;2.03;;
974;SDS011;6115;49.296;10.602;2023-06-14T12:11:40;2.77;;;2.47;;
974;SDS011;6115;49.296;10.602;2023-06-14T12:16:40;2.80;;;2.30;;
974;SDS011;6115;49.296;10.602;2023-06-14T12:21:47;2.47;;;2.23;;
974;SDS011;6115;49.296;10.602;2023-06-14T12:26:52;2.30;;;2.10;;
974;SDS011;6115;49.296;10.602;2023-06-14T12:31:53;1.90;;;1.70;;
974;SDS011;6115;49.296;10.602;2023-06-14T12:36:54;2.80;;;2.40;;
974;SDS011;6115;49.296;10.602;2023-06-14T12:41:55;2.67;;;2.43;;
974;SDS011;6115;49.296;10.602;2023-06-14T12:46:58;2.83;;;2.00;;
974;SDS011;6115;49.296;10.602;2023-06-14T12:51:58;2.07;;;1.90;;
974;SDS011;6115;49.296;10.602;2023-06-14T12:56:59;2.63;;;2.30;;
974;SDS011;6115;49.296;10.602;2023-06-14T13:02:09;2.90;;;2.07;;
974;SDS011;6115;49.296;10.602;2023-06-14T13:07:14;2.40;;;2.20;;
974;SDS011;6115;49.296;10.602;2023-06-14T13:12:15;3.00;;;1.90;;
974;SDS011;6115;49.296;10.602;2023-06-14T13:17:15;2.53;;;2.23;;
974;SDS011;6115;49.296;10.602;2023-06-14T13:22:16;2.27;;;2.00;;
974;SDS011;6115;49.296;10.602;2023-06-14T13:27:17;2.70;;;2.00;;
974;SDS011;6115;49.296;10.602;2023-06-14T13:32:20;2.53;;;2.13;;
974;SDS011;6115;49.296;10.602;2023-06-14T13:37:21;2.50;;;2.10;;
974;SDS011;6115;49.296;10.602;2023-06-14T13:42:22;2.53;;;2.33;;
974;SDS011;6115;49.296;10.602;2023-06-14T13:47:22;3.40;;;2.70;;
974;SDS011;6115;49.296;10.602;2023-06-14T13:52:23;3.00;;;2.30;;
974;SDS011;6115;49.296;10.602;2023-06-14T13:57:24;2.27;;;2.07;;
974;SDS011;6115;49.296;10.602;2023-06-14T14:02:25;2.50;;;2.27;;
974;SDS011;6115;49.296;10.602;2023-06-14T14:07:26;5.93;;;2.17;;
974;SDS011;6115;49.296;10.602;2023-06-14T14:12:28;3.13;;;2.80;;
974;SDS011;6115;49.296;10.602;2023-06-14T14:17:29;1.77;;;1.67;;
974;SDS011;6115;49.296;10.602;2023-06-14T14:22:29;2.70;;;2.30;;
974;SDS011;6115;49.296;10.602;2023-06-14T14:27:30;2.80;;;2.47;;
974;SDS011;6115;49.296;10.602;2023-06-14T14:32:30;3.53;;;2.23;;
974;SDS011;6115;49.296;10.602;2023-06-14T14:37:31;2.70;;;2.50;;
974;SDS011;6115;49.296;10.602;2023-06-14T14:42:32;2.87;;;2.30;;
974;SDS011;6115;49.296;10.602;2023-06-14T14:47:32;2.37;;;2.17;;
974;SDS011;6115;49.296;10.602;2023-06-14T14:52:33;2.47;;;2.27;;
974;SDS011;6115;49.296;10.602;2023-06-14T14:57:33;2.60;;;2.20;;
974;SDS011;6115;49.296;10.602;2023-06-14T15:02:36;3.03;;;2.40;;
974;SDS011;6115;49.296;10.602;2023-06-14T15:07:36;2.50;;;2.10;;
974;SDS011;6115;49.296;10.602;2023-06-14T15:12:39;4.47;;;2.17;;
974;SDS011;6115;49.296;10.602;2023-06-14T15:17:40;4.10;;;2.40;;
974;SDS011;6115;49.296;10.602;2023-06-14T15:22:40;2.00;;;1.80;;
974;SDS011;6115;49.296;10.602;2023-06-14T15:27:41;2.50;;;2.30;;
974;SDS011;6115;49.296;10.602;2023-06-14T15:32:42;2.33;;;1.97;;
974;SDS011;6115;49.296;10.602;2023-06-14T15:37:42;3.07;;;2.27;;
974;SDS011;6115;49.296;10.602;2023-06-14T15:42:43;2.10;;;1.70;;
974;SDS011;6115;49.296;10.602;2023-06-14T15:47:43;2.43;;;1.73;;
974;SDS011;6115;49.296;10.602;2023-06-14T15:52:44;2.37;;;2.07;;
974;SDS011;6115;49.296;10.602;2023-06-14T15:57:46;2.70;;;2.07;;
974;SDS011;6115;49.296;10.602;2023-06-14T16:02:47;6.60;;;2.27;;
974;SDS011;6115;49.296;10.602;2023-06-14T16:07:49;2.43;;;1.70;;
974;SDS011;6115;49.296;10.602;2023-06-14T16:12:50;2.33;;;1.93;;
974;SDS011;6115;49.296;10.602;2023-06-14T16:17:50;3.17;;;2.70;;
974;SDS011;6115;49.296;10.602;2023-06-14T16:22:51;2.57;;;2.37;;
974;SDS011;6115;49.296;10.602;2023-06-14T16:27:51;2.60;;;2.13;;
974;SDS011;6115;49.296;10.602;2023-06-14T16:32:52;2.20;;;2.00;;
974;SDS011;6115;49.296;10.602;2023-06-14T16:37:52;1.87;;;1.73;;
974;SDS011;6115;49.296;10.602;2023-06-14T16:42:54;2.33;;;2.07;;
974;SDS011;6115;49.296;10.602;2023-06-14T16:47:55;3.27;;;2.37;;
974;SDS011;6115;49.296;10.602;2023-06-14T16:52:55;2.30;;;2.10;;
974;SDS011;6115;49.296;10.602;2023-06-14T16:57:56;2.10;;;1.70;;
974;SDS011;6115;49.296;10.602;2023-06-14T17:02:57;2.30;;;2.07;;
974;SDS011;6115;49.296;10.602;2023-06-14T17:07:58;3.07;;;1.90;;
974;SDS011;6115;49.296;10.602;2023-06-14T17:12:59;1.67;;;1.57;;
974;SDS011;6115;49.296;10.602;2023-06-14T17:17:59;3.70;;;1.70;;
974;SDS011;6115;49.296;10.602;2023-06-14T17:23:00;2.40;;;2.03;;
974;SDS011;6115;49.296;10.602;2023-06-14T17:28:01;2.97;;;2.33;;
974;SDS011;6115;49.296;10.602;2023-06-14T17:33:07;2.50;;;2.00;;
974;SDS011;6115;49.296;10.602;2023-06-14T17:38:09;3.77;;;2.13;;
974;SDS011;6115;49.296;10.602;2023-06-14T17:43:11;2.00;;;1.80;;
974;SDS011;6115;49.296;10.602;2023-06-14T17:48:11;2.00;;;1.77;;
974;SDS011;6115;49.296;10.602;2023-06-14T17:53:12;2.73;;;2.30;;
974;SDS011;6115;49.296;10.602;2023-06-14T17:58:13;2.33;;;2.13;;
974;SDS011;6115;49.296;10.602;2023-06-14T18:03:13;2.50;;;2.10;;
974;SDS011;6115;49.296;10.602;2023-06-14T18:08:14;2.30;;;1.90;;
974;SDS011;6115;49.296;10.602;2023-06-14T18:13:15;2.07;;;1.67;;
974;SDS011;6115;49.296;10.602;2023-06-14T18:18:15;1.50;;;1.40;;
974;SDS011;6115;49.296;10.602;2023-06-14T18:23:16;2.30;;;1.93;;
974;SDS011;6115;49.296;10.602;2023-06-14T18:28:16;2.10;;;1.90;;
974;SDS011;6115;49.296;10.602;2023-06-14T18:33:17;2.50;;;1.90;;
974;SDS011;6115;49.296;10.602;2023-06-14T18:38:18;2.30;;;2.03;;
974;SDS011;6115;49.296;10.602;2023-06-14T18:43:19;2.50;;;1.90;;
974;SDS011;6115;49.296;10.602;2023-06-14T18:48:21;3.10;;;1.87;;
974;SDS011;6115;49.296;10.602;2023-06-14T18:53:22;2.40;;;2.10;;
974;SDS011;6115;49.296;10.602;2023-06-14T18:58:26;2.27;;;2.07;;
974;SDS011;6115;49.296;10.602;2023-06-14T19:03:34;2.13;;;1.90;;
974;SDS011;6115;49.296;10.602;2023-06-14T19:08:35;2.00;;;1.77;;
974;SDS011;6115;49.296;10.602;2023-06-14T19:13:37;2.50;;;1.93;;
974;SDS011;6115;49.296;10.602;2023-06-14T19:18:37;1.83;;;1.60;;
974;SDS011;6115;49.296;10.602;2023-06-14T19:23:38;1.70;;;1.60;;
974;SDS011;6115;49.296;10.602;2023-06-14T19:28:40;2.07;;;1.77;;
974;SDS011;6115;49.296;10.602;2023-06-14T19:33:40;1.97;;;1.77;;
974;SDS011;6115;49.296;10.602;2023-06-14T19:38:41;1.90;;;1.70;;
974;SDS011;6115;49.296;10.602;2023-06-14T19:43:42;2.20;;;1.70;;
974;SDS011;6115;49.296;10.602;2023-06-14T19:48:42;2.40;;;1.60;;
974;SDS011;6115;49.296;10.602;2023-06-14T19:53:43;5.60;;;1.90;;
974;SDS011;6115;49.296;10.602;2023-06-14T19:58:45;2.80;;;2.27;;
974;SDS011;6115;49.296;10.602;2023-06-14T20:03:46;9.53;;;2.03;;
974;SDS011;6115;49.296;10.602;2023-06-14T20:08:49;2.40;;;1.90;;
974;SDS011;6115;49.296;10.602;2023-06-14T20:13:49;2.77;;;1.93;;
974;SDS011;6115;49.296;10.602;2023-06-14T20:18:50;2.53;;;2.30;;
974;SDS011;6115;49.296;10.602;2023-06-14T20:23:51;2.10;;;1.90;;
974;SDS011;6115;49.296;10.602;2023-06-14T20:28:51;3.80;;;1.77;;
974;SDS011;6115;49.296;10.602;2023-06-14T20:33:52;2.33;;;2.13;;
974;SDS011;6115;49.296;10.602;2023-06-14T20:38:52;4.40;;;2.53;;
974;SDS011;6115;49.296;10.602;2023-06-14T20:43:53;3.20;;;2.23;;
974;SDS011;6115;49.296;10.602;2023-06-14T20:48:57;2.20;;;2.00;;
974;SDS011;6115;49.296;10.602;2023-06-14T20:53:58;2.20;;;1.93;;
974;SDS011;6115;49.296;10.602;2023-06-14T20:58:58;2.53;;;2.33;;
974;SDS011;6115;49.296;10.602;2023-06-14T21:03:59;2.50;;;2.30;;
974;SDS011;6115;49.296;10.602;2023-06-14T21:08:59;2.80;;;2.37;;
974;SDS011;6115;49.296;10.602;2023-06-14T21:14:00;2.77;;;2.43;;
974;SDS011;6115;49.296;10.602;2023-06-14T21:19:01;3.13;;;2.63;;
974;SDS011;6115;49.296;10.602;2023-06-14T21:24:01;2.67;;;2.27;;
974;SDS011;6115;49.296;10.602;2023-06-14T21:29:02;2.60;;;2.20;;
974;SDS011;6115;49.296;10.602;2023-06-14T21:34:03;2.50;;;2.13;;
974;SDS011;6115;49.296;10.602;2023-06-14T21:39:04;3.70;;;2.00;;
974;SDS011;6115;49.296;10.602;2023-06-14T21:44:04;3.00;;;2.57;;
974;SDS011;6115;49.296;10.602;2023-06-14T21:49:05;2.93;;;2.40;;
974;SDS011;6115;49.296;10.602;2023-06-14T21:54:06;3.20;;;2.40;;
974;SDS011;6115;49.296;10.602;2023-06-14T21:59:06;2.60;;;2.30;;
974;SDS011;6115;49.296;10.602;2023-06-14T22:04:07;2.93;;;2.63;;
974;SDS011;6115;49.296;10.602;2023-06-14T22:09:07;3.17;;;2.20;;
974;SDS011;6115;49.296;10.602;2023-06-14T22:14:09;3.37;;;2.53;;
974;SDS011;6115;49.296;10.602;2023-06-14T22:19:10;4.10;;;2.73;;
974;SDS011;6115;49.296;10.602;2023-06-14T22:24:11;2.90;;;2.40;;
974;SDS011;6115;49.296;10.602;2023-06-14T22:29:11;2.90;;;2.60;;
974;SDS011;6115;49.296;10.602;2023-06-14T22:34:16;2.60;;;2.23;;
974;SDS011;6115;49.296;10.602;2023-06-14T22:39:18;2.60;;;2.30;;
974;SDS011;6115;49.296;10.602;2023-06-14T22:44:20;2.90;;;2.57;;
974;SDS011;6115;49.296;10.602;2023-06-14T22:49:20;2.60;;;2.40;;
974;SDS011;6115;49.296;10.602;2023-06-14T22:54:21;2.77;;;2.17;;
974;SDS011;6115;49.296;10.602;2023-06-14T22:59:21;3.10;;;2.43;;
974;SDS011;6115;49.296;10.602;2023-06-14T23:04:22;2.80;;;2.50;;
974;SDS011;6115;49.296;10.602;2023-06-14T23:09:23;3.20;;;2.40;;
974;SDS011;6115;49.296;10.602;2023-06-14T23:14:24;2.90;;;2.43;;
974;SDS011;6115;49.296;10.602;2023-06-14T23:19:24;3.60;;;2.60;;
974;SDS011;6115;49.296;10.602;2023-06-14T23:24:29;3.13;;;2.63;;
974;SDS011;6115;49.296;10.602;2023-06-14T23:29:30;3.80;;;3.17;;
974;SDS011;6115;49.296;10.602;2023-06-14T23:34:34;3.37;;;2.73;;
974;SDS011;6115;49.296;10.602;2023-06-14T23:39:34;3.00;;;2.40;;
974;SDS011;6115;49.296;10.602;2023-06-14T23:44:44;5.47;;;3.00;;
974;SDS011;6115;49.296;10.602;2023-06-14T23:49:45;6.73;;;3.03;;
974;SDS011;6115;49.296;10.602;2023-06-14T23:54:46;3.40;;;2.80;;
974;SDS011;6115;49.296;10.602;2023-06-14T23:59:46;3.43;;;2.83;;
